Time;durP1;ratioP1;P1;durP2;ratioP2;P2;SDS_P1;SDS_P2;PMS_P1;PMS_P2;Temp;Humidity;BMP_temperature;BMP_pressure;BME280_temperature;BME280_humidity;BME280_pressure;Samples;Min_cycle;Max_cycle;Signal;HPM_P1;HPM_P2
2022/07/08 00:00:38;;;;;;;10.13;2.73;;;15.60;99.90;;;;;;4998473;28;20480;-80
2022/07/08 00:03:07;;;;;;;12.90;3.50;;;15.60;99.90;;;;;;4997705;28;20796;-81
2022/07/08 00:05:35;;;;;;;8.30;2.70;;;15.60;99.90;;;;;;4998981;28;20448;-81
2022/07/08 00:08:03;;;;;;;11.57;2.53;;;15.60;99.90;;;;;;4997321;28;20453;-79
2022/07/08 00:10:32;;;;;;;11.03;3.07;;;15.60;99.90;;;;;;4997052;28;20454;-79
2022/07/08 00:13:00;;;;;;;9.90;3.00;;;15.60;99.90;;;;;;4997844;28;20449;-79
2022/07/08 00:15:30;;;;;;;8.83;2.80;;;15.60;99.90;;;;;;4998523;28;20453;-79
2022/07/08 00:17:59;;;;;;;7.37;2.77;;;15.60;99.90;;;;;;4996572;28;20437;-80
2022/07/08 00:20:27;;;;;;;9.67;2.87;;;15.60;99.90;;;;;;4996544;28;20519;-80
2022/07/08 00:22:55;;;;;;;10.87;2.43;;;15.60;99.90;;;;;;4997287;28;20440;-79
2022/07/08 00:25:23;;;;;;;10.23;2.80;;;15.60;99.90;;;;;;4998138;28;20930;-79
2022/07/08 00:27:52;;;;;;;8.03;3.43;;;15.60;99.90;;;;;;4997109;28;20451;-80
2022/07/08 00:30:20;;;;;;;8.67;2.80;;;15.60;99.90;;;;;;4996593;28;20477;-79
2022/07/08 00:32:50;;;;;;;6.50;2.80;;;15.60;99.90;;;;;;4998121;28;20817;-78
2022/07/08 00:35:18;;;;;;;10.20;3.10;;;15.60;99.90;;;;;;4998090;28;20456;-80
2022/07/08 00:37:46;;;;;;;8.57;2.90;;;15.50;99.90;;;;;;4997518;28;20500;-79
2022/07/08 00:40:15;;;;;;;9.87;3.40;;;15.50;99.90;;;;;;4996730;28;20472;-80
2022/07/08 00:42:48;;;;;;;11.77;3.27;;;15.50;99.90;;;;;;4999325;28;20467;-79
2022/07/08 00:45:16;;;;;;;8.07;3.53;;;15.50;99.90;;;;;;4998544;28;20990;-79
2022/07/08 00:47:45;;;;;;;7.93;2.77;;;15.50;99.90;;;;;;4997110;28;20453;-79
2022/07/08 00:50:14;;;;;;;6.13;2.60;;;15.50;99.90;;;;;;4996644;28;20982;-80
2022/07/08 00:52:43;;;;;;;11.13;3.07;;;15.50;99.90;;;;;;4998150;28;20418;-80
2022/07/08 00:55:11;;;;;;;7.60;3.03;;;15.50;99.90;;;;;;4998372;28;20441;-81
2022/07/08 00:57:40;;;;;;;11.80;4.40;;;15.50;99.90;;;;;;4997099;28;20433;-81
2022/07/08 01:00:09;;;;;;;7.17;2.27;;;15.50;99.90;;;;;;4996987;28;20486;-81
2022/07/08 01:02:37;;;;;;;10.33;2.37;;;15.50;99.90;;;;;;4996366;28;20459;-80
2022/07/08 01:05:08;;;;;;;12.33;3.17;;;15.40;99.90;;;;;;4996126;28;20426;-81
2022/07/08 01:07:38;;;;;;;8.23;2.27;;;15.40;99.90;;;;;;4997409;28;20425;-80
2022/07/08 01:10:07;;;;;;;6.37;2.63;;;15.40;99.90;;;;;;4996139;28;20455;-80
2022/07/08 01:12:35;;;;;;;8.93;2.90;;;15.40;99.90;;;;;;4996219;28;20449;-80
2022/07/08 01:15:04;;;;;;;5.90;2.83;;;15.40;99.90;;;;;;4997967;28;20412;-82
2022/07/08 01:17:41;;;;;;;6.60;2.20;;;15.40;99.90;;;;;;5005706;28;20437;-80
2022/07/08 01:20:11;;;;;;;7.60;3.70;;;15.40;99.90;;;;;;5013507;28;20503;-80
2022/07/08 01:22:41;;;;;;;8.20;2.70;;;15.40;99.90;;;;;;5015742;28;20460;-79
2022/07/08 01:25:10;;;;;;;9.47;2.77;;;15.40;99.90;;;;;;5015352;28;20448;-81
2022/07/08 01:27:39;;;;;;;8.13;2.80;;;15.40;99.90;;;;;;5014614;28;20427;-81
2022/07/08 01:30:08;;;;;;;11.70;2.70;;;15.40;99.90;;;;;;5013699;28;20460;-79
2022/07/08 01:32:39;;;;;;;6.80;2.50;;;15.40;99.90;;;;;;5016207;28;20443;-80
2022/07/08 01:35:08;;;;;;;8.77;3.17;;;15.30;99.90;;;;;;5016791;28;20420;-80
2022/07/08 01:37:36;;;;;;;12.33;3.23;;;15.30;99.90;;;;;;5018387;28;20456;-78
2022/07/08 01:40:07;;;;;;;8.50;2.30;;;15.30;99.90;;;;;;5017728;28;20427;-79
2022/07/08 01:42:35;;;;;;;10.50;3.20;;;15.30;99.90;;;;;;5009546;28;20428;-79
2022/07/08 01:45:04;;;;;;;7.60;2.57;;;15.30;99.90;;;;;;4999234;28;20476;-79
2022/07/08 01:47:32;;;;;;;11.87;2.50;;;15.30;99.90;;;;;;4996300;28;20478;-80
2022/07/08 01:50:01;;;;;;;7.13;2.47;;;15.30;99.90;;;;;;4995075;28;20507;-78
2022/07/08 01:52:30;;;;;;;10.00;3.87;;;15.30;99.90;;;;;;4993850;28;20812;-78
2022/07/08 01:54:58;;;;;;;9.40;2.97;;;15.20;99.90;;;;;;4993802;28;20441;-78
2022/07/08 01:57:28;;;;;;;9.50;2.80;;;15.30;99.90;;;;;;4994370;28;20572;-78
2022/07/08 01:59:56;;;;;;;12.50;2.77;;;15.20;99.90;;;;;;4997220;28;20531;-80
2022/07/08 02:02:24;;;;;;;8.60;4.20;;;15.30;99.90;;;;;;4999431;28;20858;-80
2022/07/08 02:04:53;;;;;;;8.20;2.90;;;15.20;99.90;;;;;;4995739;28;20460;-78
2022/07/08 02:07:21;;;;;;;6.27;2.33;;;15.20;99.90;;;;;;4995671;28;20813;-78
2022/07/08 02:09:49;;;;;;;6.23;2.20;;;15.20;99.90;;;;;;4995537;28;21032;-80
2022/07/08 02:12:19;;;;;;;6.30;2.77;;;15.20;99.90;;;;;;4994253;28;20427;-80
2022/07/08 02:14:50;;;;;;;7.47;2.30;;;15.20;99.90;;;;;;4994052;28;20449;-80
2022/07/08 02:17:20;;;;;;;8.57;2.87;;;15.10;99.90;;;;;;4993718;28;20468;-80
2022/07/08 02:19:49;;;;;;;10.10;3.43;;;15.10;99.90;;;;;;4993642;28;20449;-78
2022/07/08 02:22:17;;;;;;;8.97;2.80;;;15.10;99.90;;;;;;4996243;28;20423;-81
2022/07/08 02:24:47;;;;;;;8.27;3.33;;;15.10;99.90;;;;;;4996570;28;20946;-81
2022/07/08 02:27:16;;;;;;;5.93;2.23;;;15.10;99.90;;;;;;5000044;28;20494;-80
2022/07/08 02:29:44;;;;;;;10.83;2.93;;;15.10;99.90;;;;;;5001608;28;20427;-79
2022/07/08 02:32:14;;;;;;;6.70;2.30;;;15.10;99.90;;;;;;4999576;28;20457;-79
2022/07/08 02:34:42;;;;;;;9.53;2.33;;;15.10;99.90;;;;;;4998426;28;20455;-77
2022/07/08 02:37:11;;;;;;;6.63;2.50;;;15.00;99.90;;;;;;4998724;28;20448;-81
2022/07/08 02:39:39;;;;;;;7.03;2.87;;;15.00;99.90;;;;;;4999856;28;20460;-80
2022/07/08 02:42:08;;;;;;;10.53;3.30;;;15.00;99.90;;;;;;4998541;28;20521;-79
2022/07/08 02:44:37;;;;;;;9.13;2.90;;;15.00;99.90;;;;;;4998127;28;20532;-81
2022/07/08 02:47:06;;;;;;;6.20;2.17;;;15.00;99.90;;;;;;4998115;28;20472;-81
2022/07/08 02:49:36;;;;;;;8.57;3.00;;;15.00;99.90;;;;;;4997848;28;20880;-81
2022/07/08 02:52:04;;;;;;;5.13;2.00;;;15.00;99.90;;;;;;4998197;28;20457;-79
2022/07/08 02:54:33;;;;;;;8.90;2.63;;;15.00;99.90;;;;;;4999260;28;20443;-79
2022/07/08 02:57:01;;;;;;;10.80;2.37;;;14.90;99.90;;;;;;4998211;28;20469;-79
2022/07/08 02:59:29;;;;;;;7.23;2.23;;;14.90;99.90;;;;;;4997353;28;20472;-78
2022/07/08 03:01:58;;;;;;;9.93;3.00;;;14.90;99.90;;;;;;4997775;28;20491;-79
2022/07/08 03:04:26;;;;;;;6.93;2.17;;;14.90;99.90;;;;;;5000062;28;20453;-82
2022/07/08 03:06:56;;;;;;;5.93;2.57;;;14.90;99.90;;;;;;4999467;28;20862;-80
2022/07/08 03:09:24;;;;;;;7.97;2.27;;;14.90;99.90;;;;;;4997447;28;20482;-81
2022/07/08 03:11:52;;;;;;;5.87;2.50;;;14.90;99.90;;;;;;5001092;28;20448;-81
2022/07/08 03:14:20;;;;;;;7.93;3.30;;;14.90;99.90;;;;;;5000399;28;20440;-81
2022/07/08 03:16:49;;;;;;;9.00;2.43;;;14.90;99.90;;;;;;4999191;28;20481;-81
2022/07/08 03:19:17;;;;;;;7.70;2.70;;;14.90;99.90;;;;;;5001104;28;21024;-80
2022/07/08 03:21:45;;;;;;;8.43;2.73;;;14.90;99.90;;;;;;5000561;28;20423;-80
2022/07/08 03:24:15;;;;;;;8.13;2.30;;;14.90;99.90;;;;;;5000552;28;20449;-81
2022/07/08 03:26:43;;;;;;;10.57;2.73;;;14.90;99.90;;;;;;5008089;28;20468;-81
2022/07/08 03:29:12;;;;;;;7.87;2.50;;;14.90;99.90;;;;;;5009759;28;21012;-80
2022/07/08 03:31:40;;;;;;;10.07;3.17;;;14.90;99.90;;;;;;5009549;28;20411;-80
2022/07/08 03:34:09;;;;;;;6.20;2.40;;;14.90;99.90;;;;;;5004568;28;20459;-80
2022/07/08 03:36:37;;;;;;;10.23;2.67;;;14.90;99.90;;;;;;5004741;28;20460;-80
2022/07/08 03:39:05;;;;;;;5.20;2.33;;;14.90;99.90;;;;;;4999250;28;20432;-81
2022/07/08 03:41:34;;;;;;;9.50;2.97;;;14.90;99.90;;;;;;4997854;28;20998;-80
2022/07/08 03:44:02;;;;;;;7.50;3.03;;;14.90;99.90;;;;;;4999317;28;20452;-79
2022/07/08 03:46:31;;;;;;;6.20;2.80;;;14.80;99.90;;;;;;4998469;28;20492;-80
2022/07/08 03:49:00;;;;;;;5.83;2.47;;;14.80;99.90;;;;;;4999376;28;20934;-80
2022/07/08 03:51:28;;;;;;;7.00;2.47;;;14.80;99.90;;;;;;4998448;28;20847;-79
2022/07/08 03:53:56;;;;;;;7.93;2.53;;;14.80;99.90;;;;;;4997305;28;20457;-80
2022/07/08 03:56:25;;;;;;;5.67;2.40;;;14.80;99.90;;;;;;4997085;28;20457;-80
2022/07/08 03:58:54;;;;;;;10.00;3.00;;;14.80;99.90;;;;;;4996911;28;20869;-79
2022/07/08 04:01:23;;;;;;;7.20;2.60;;;14.80;99.90;;;;;;4997148;28;20523;-77
2022/07/08 04:03:51;;;;;;;7.87;3.10;;;14.80;99.90;;;;;;4997963;28;20441;-81
2022/07/08 04:06:19;;;;;;;7.77;2.53;;;14.90;99.90;;;;;;4996710;28;20482;-80
2022/07/08 04:08:48;;;;;;;5.77;2.40;;;14.90;99.90;;;;;;4997125;28;20906;-81
2022/07/08 04:11:16;;;;;;;7.50;3.53;;;14.90;99.90;;;;;;4997004;28;20564;-80
2022/07/08 04:13:44;;;;;;;8.80;3.13;;;14.90;99.90;;;;;;4996906;28;20890;-81
2022/07/08 04:16:15;;;;;;;10.90;3.00;;;14.90;99.90;;;;;;4998153;28;20837;-81
2022/07/08 04:18:43;;;;;;;9.50;2.80;;;14.90;99.90;;;;;;4997620;28;20468;-79
2022/07/08 04:21:12;;;;;;;6.97;3.10;;;14.90;99.90;;;;;;4998346;28;20465;-79
2022/07/08 04:23:41;;;;;;;5.57;2.93;;;14.90;99.90;;;;;;5000701;28;20469;-80
2022/07/08 04:26:10;;;;;;;9.53;3.20;;;14.90;99.90;;;;;;5000231;28;20457;-79
2022/07/08 04:28:38;;;;;;;11.37;3.17;;;14.90;99.90;;;;;;4998227;28;20555;-80
2022/07/08 04:31:06;;;;;;;6.40;2.73;;;14.80;99.90;;;;;;4997994;28;20461;-80
2022/07/08 04:33:36;;;;;;;6.20;2.37;;;14.90;99.90;;;;;;4999230;28;20471;-80
2022/07/08 04:36:05;;;;;;;7.07;2.13;;;14.90;99.90;;;;;;5001445;28;20429;-80
2022/07/08 04:38:33;;;;;;;5.37;2.90;;;14.90;99.90;;;;;;4998975;28;20549;-80
2022/07/08 04:41:02;;;;;;;10.57;3.30;;;14.90;99.90;;;;;;4998192;28;20462;-80
2022/07/08 04:43:30;;;;;;;7.47;2.53;;;14.90;99.90;;;;;;4997302;28;20531;-80
2022/07/08 04:45:59;;;;;;;7.77;2.37;;;14.90;99.90;;;;;;4997377;28;20467;-80
2022/07/08 04:48:27;;;;;;;10.23;2.70;;;14.90;99.90;;;;;;4996954;28;20477;-80
2022/07/08 04:50:57;;;;;;;5.90;2.50;;;14.90;99.90;;;;;;4996040;28;20878;-79
2022/07/08 04:53:26;;;;;;;6.00;2.53;;;14.90;99.90;;;;;;4998358;28;20448;-80
2022/07/08 04:55:54;;;;;;;8.60;2.60;;;14.90;99.90;;;;;;4997168;28;20520;-80
2022/07/08 04:58:22;;;;;;;10.53;2.93;;;14.90;99.90;;;;;;4998112;28;20496;-79
2022/07/08 05:00:51;;;;;;;8.00;2.83;;;14.90;99.90;;;;;;4997155;28;20986;-80
2022/07/08 05:03:19;;;;;;;4.67;2.00;;;14.90;99.90;;;;;;4998970;28;20792;-81
2022/07/08 05:05:51;;;;;;;6.77;3.10;;;14.90;99.90;;;;;;4998580;28;20503;-79
2022/07/08 05:08:21;;;;;;;6.40;2.17;;;14.90;99.90;;;;;;4998935;28;20986;-80
2022/07/08 05:10:50;;;;;;;6.97;2.83;;;15.00;99.90;;;;;;4997338;28;20443;-80
2022/07/08 05:13:18;;;;;;;6.90;2.37;;;15.00;99.90;;;;;;4998476;28;20560;-81
2022/07/08 05:15:47;;;;;;;5.97;2.77;;;15.00;99.90;;;;;;4996714;28;20449;-81
2022/07/08 05:18:15;;;;;;;12.03;2.50;;;15.00;99.90;;;;;;4998233;28;20459;-80
2022/07/08 05:20:44;;;;;;;8.50;2.57;;;15.00;99.90;;;;;;4997014;28;20479;-81
2022/07/08 05:23:12;;;;;;;8.73;2.73;;;15.10;99.90;;;;;;4997210;28;20434;-82
2022/07/08 05:25:42;;;;;;;10.00;3.17;;;15.10;99.90;;;;;;4996585;28;20495;-80
2022/07/08 05:28:10;;;;;;;12.33;3.00;;;15.10;99.90;;;;;;4997934;28;20559;-79
2022/07/08 05:30:38;;;;;;;5.53;2.27;;;15.10;99.90;;;;;;4996762;28;20471;-78
2022/07/08 05:33:07;;;;;;;6.03;2.80;;;15.20;99.90;;;;;;4995898;28;20969;-78
2022/07/08 05:35:35;;;;;;;5.60;1.97;;;15.20;99.90;;;;;;4997431;28;20512;-79
2022/07/08 05:38:03;;;;;;;6.97;2.57;;;15.30;99.90;;;;;;4996171;28;20540;-80
2022/07/08 05:40:32;;;;;;;9.80;2.50;;;15.30;99.90;;;;;;4997695;28;21048;-80
2022/07/08 05:43:03;;;;;;;6.50;2.10;;;15.40;99.90;;;;;;4996356;28;20463;-80
2022/07/08 05:45:31;;;;;;;5.30;2.57;;;15.50;99.90;;;;;;4996477;28;20448;-80
2022/07/08 05:48:00;;;;;;;8.83;2.50;;;15.70;99.90;;;;;;4996770;28;20495;-79
2022/07/08 05:50:28;;;;;;;5.13;1.97;;;15.90;99.90;;;;;;4996895;28;20804;-78
2022/07/08 05:52:56;;;;;;;16.63;3.23;;;16.10;99.90;;;;;;4995878;28;21011;-81
2022/07/08 05:55:24;;;;;;;5.40;2.40;;;16.30;99.90;;;;;;4996236;28;20839;-80
2022/07/08 05:57:53;;;;;;;12.27;3.20;;;16.40;99.90;;;;;;4996344;28;20464;-79
2022/07/08 06:00:22;;;;;;;5.50;2.23;;;16.60;99.90;;;;;;4999266;28;20980;-80
2022/07/08 06:02:51;;;;;;;6.93;2.70;;;16.80;99.90;;;;;;5002824;28;20415;-81
2022/07/08 06:05:20;;;;;;;5.73;2.27;;;17.00;99.90;;;;;;5001016;28;20541;-81
2022/07/08 06:07:48;;;;;;;7.10;2.70;;;17.10;99.90;;;;;;5001628;28;20937;-80
2022/07/08 06:10:16;;;;;;;9.30;2.70;;;17.20;99.90;;;;;;5001248;28;20468;-80
2022/07/08 06:12:44;;;;;;;7.93;2.30;;;17.40;99.90;;;;;;5001346;28;20483;-80
2022/07/08 06:15:14;;;;;;;7.60;2.63;;;17.50;99.90;;;;;;5001506;28;20427;-81
2022/07/08 06:17:45;;;;;;;7.03;2.50;;;17.70;99.90;;;;;;5000478;28;20452;-81
2022/07/08 06:20:14;;;;;;;5.87;2.30;;;17.80;99.90;;;;;;5000532;28;20490;-80
2022/07/08 06:22:50;;;;;;;6.97;2.60;;;17.90;99.90;;;;;;5002145;28;20443;-81
2022/07/08 06:25:19;;;;;;;5.17;2.93;;;18.00;99.90;;;;;;5001875;28;20463;-82
2022/07/08 06:27:47;;;;;;;7.47;3.17;;;18.00;99.90;;;;;;5000316;28;20445;-80
2022/07/08 06:30:16;;;;;;;11.90;3.33;;;18.00;99.90;;;;;;5000459;28;20516;-80
2022/07/08 06:32:45;;;;;;;6.97;2.70;;;18.20;99.90;;;;;;5000321;28;20432;-79
2022/07/08 06:35:14;;;;;;;7.67;2.80;;;18.30;99.90;;;;;;4999251;28;20866;-80
2022/07/08 06:37:42;;;;;;;6.47;2.50;;;18.30;99.90;;;;;;5000573;28;20448;-80
2022/07/08 06:40:11;;;;;;;5.13;2.23;;;18.30;99.90;;;;;;5009615;28;20472;-82
2022/07/08 06:42:40;;;;;;;5.47;2.43;;;18.30;99.90;;;;;;5016455;28;20452;-81
2022/07/08 06:45:09;;;;;;;7.40;2.37;;;18.30;99.90;;;;;;5018223;28;20449;-81
2022/07/08 06:47:37;;;;;;;5.90;2.20;;;18.40;99.90;;;;;;5019531;28;20445;-80
2022/07/08 06:50:08;;;;;;;9.27;2.60;;;18.50;99.90;;;;;;5019610;28;20464;-81
2022/07/08 06:52:37;;;;;;;8.17;2.40;;;18.50;99.90;;;;;;5020769;28;20480;-81
2022/07/08 06:55:06;;;;;;;9.13;2.30;;;18.40;99.90;;;;;;5019258;28;20441;-82
2022/07/08 06:57:34;;;;;;;8.13;2.87;;;18.40;99.90;;;;;;5018351;28;20440;-82
2022/07/08 07:00:04;;;;;;;7.40;2.90;;;18.30;99.90;;;;;;5019873;28;20439;-79
2022/07/08 07:02:50;;;;;;;8.30;2.70;;;18.40;99.90;;;;;;5008631;28;20455;-82
2022/07/08 07:05:20;;;;;;;8.07;2.37;;;18.40;99.90;;;;;;5007993;28;20453;-81
2022/07/08 07:07:49;;;;;;;3.60;1.97;;;18.40;99.90;;;;;;5007086;28;20441;-81
2022/07/08 07:10:17;;;;;;;6.70;2.67;;;18.30;99.90;;;;;;5004054;28;20508;-80
2022/07/08 07:12:45;;;;;;;5.53;2.00;;;18.30;99.90;;;;;;5003503;28;20549;-80
2022/07/08 07:15:14;;;;;;;7.70;2.13;;;18.20;99.90;;;;;;5003366;28;20448;-80
2022/07/08 07:17:42;;;;;;;7.10;2.27;;;18.10;99.90;;;;;;4998958;28;20481;-80
2022/07/08 07:20:12;;;;;;;7.03;2.47;;;18.10;99.90;;;;;;5000346;28;20833;-81
2022/07/08 07:22:42;;;;;;;5.80;2.50;;;18.00;99.90;;;;;;4999870;28;20817;-78
2022/07/08 07:25:10;;;;;;;9.07;2.70;;;17.90;99.90;;;;;;4997637;28;20503;-81
2022/07/08 07:27:41;;;;;;;5.20;2.60;;;17.90;99.90;;;;;;4997209;28;20450;-79
2022/07/08 07:30:10;;;;;;;7.70;2.73;;;17.80;99.90;;;;;;4996170;28;20911;-80
2022/07/08 07:32:39;;;;;;;6.53;2.70;;;17.80;99.90;;;;;;4997053;28;20444;-81
2022/07/08 07:35:07;;;;;;;7.43;2.60;;;17.80;99.90;;;;;;4998923;28;20484;-79
2022/07/08 07:37:37;;;;;;;6.60;2.60;;;17.80;99.90;;;;;;4999429;28;20483;-81
2022/07/08 07:40:09;;;;;;;9.17;3.30;;;17.80;99.90;;;;;;4999921;28;20476;-81
2022/07/08 07:42:39;;;;;;;7.83;2.83;;;17.80;99.90;;;;;;4998380;28;20826;-80
2022/07/08 07:45:08;;;;;;;8.33;2.50;;;17.80;99.90;;;;;;4999554;28;20437;-81
2022/07/08 07:47:36;;;;;;;7.13;3.03;;;17.80;99.90;;;;;;4998704;28;20460;-83
2022/07/08 07:50:06;;;;;;;5.60;2.60;;;17.80;99.90;;;;;;4998515;28;20492;-81
2022/07/08 07:52:34;;;;;;;5.97;2.60;;;17.80;99.90;;;;;;4998453;28;20453;-81
2022/07/08 07:55:02;;;;;;;6.00;2.40;;;17.80;99.90;;;;;;4997235;28;20465;-82
2022/07/08 07:57:37;;;;;;;5.90;2.53;;;17.80;99.90;;;;;;4997420;28;20445;-81
2022/07/08 08:00:08;;;;;;;6.93;2.50;;;17.80;99.90;;;;;;4997959;28;20473;-80
2022/07/08 08:02:40;;;;;;;7.97;3.30;;;17.80;99.90;;;;;;4999482;28;20898;-84
2022/07/08 08:05:09;;;;;;;6.10;2.43;;;17.80;99.90;;;;;;5000185;28;20420;-82
2022/07/08 08:07:39;;;;;;;10.23;3.20;;;17.80;99.90;;;;;;4998218;28;20457;-83
2022/07/08 08:10:09;;;;;;;9.43;2.93;;;17.70;99.90;;;;;;4996778;28;20558;-81
2022/07/08 08:12:38;;;;;;;7.93;3.07;;;17.70;99.90;;;;;;4997772;28;20456;-82
2022/07/08 08:15:08;;;;;;;7.47;3.03;;;17.60;99.90;;;;;;4999530;28;20456;-82
2022/07/08 08:17:37;;;;;;;11.33;2.93;;;17.60;99.90;;;;;;5000094;28;20464;-82
2022/07/08 08:20:07;;;;;;;11.90;4.00;;;17.60;99.90;;;;;;5000153;28;20515;-83
2022/07/08 08:22:36;;;;;;;8.17;2.90;;;17.70;99.90;;;;;;5000315;28;20453;-84
2022/07/08 08:25:24;;;;;;;6.50;2.60;;;17.60;99.90;;;;;;4999389;28;20445;-83
2022/07/08 08:27:54;;;;;;;6.97;2.87;;;17.70;99.90;;;;;;5000327;28;20456;-82
2022/07/08 08:30:23;;;;;;;9.67;2.87;;;17.70;99.90;;;;;;4999888;28;20485;-83
2022/07/08 08:32:51;;;;;;;14.50;3.53;;;17.70;99.90;;;;;;4999746;28;20438;-83
2022/07/08 08:35:20;;;;;;;9.30;3.03;;;17.70;99.90;;;;;;5000196;28;20547;-84
2022/07/08 08:37:48;;;;;;;8.00;2.83;;;17.80;99.90;;;;;;5001310;28;20453;-82
2022/07/08 08:40:17;;;;;;;11.30;2.80;;;17.80;99.90;;;;;;5000568;28;20472;-85
2022/07/08 08:42:45;;;;;;;6.23;3.00;;;17.90;99.90;;;;;;4998590;28;20457;-82
2022/07/08 08:45:15;;;;;;;7.30;2.93;;;17.90;99.90;;;;;;4998738;28;20430;-84
2022/07/08 08:47:46;;;;;;;9.43;2.60;;;18.00;99.90;;;;;;4999712;28;20444;-83
2022/07/08 08:53:04;;;;;;;7.57;2.63;;;18.00;99.90;;;;;;4998681;28;20445;-81
2022/07/08 08:55:34;;;;;;;5.70;2.43;;;18.00;99.90;;;;;;4999722;28;20508;-82
2022/07/08 08:58:05;;;;;;;10.03;3.30;;;18.10;99.90;;;;;;4998849;28;20858;-81
2022/07/08 09:00:37;;;;;;;9.17;3.20;;;18.10;99.90;;;;;;4998831;28;20484;-82
2022/07/08 09:03:05;;;;;;;5.80;2.67;;;18.10;99.90;;;;;;4998362;28;20432;-83
2022/07/08 09:05:34;;;;;;;6.10;3.33;;;18.10;99.90;;;;;;4997835;28;20992;-82
2022/07/08 09:08:02;;;;;;;8.20;3.00;;;18.10;99.90;;;;;;4998610;28;20507;-81
2022/07/08 09:10:30;;;;;;;6.60;2.97;;;18.10;99.90;;;;;;4995398;28;20485;-81
2022/07/08 09:13:04;;;;;;;5.33;2.90;;;18.10;99.90;;;;;;4996335;28;20455;-83
2022/07/08 09:15:35;;;;;;;5.57;2.93;;;18.10;99.90;;;;;;4995972;28;20444;-82
2022/07/08 09:18:06;;;;;;;5.77;3.40;;;18.10;99.90;;;;;;4998087;28;20429;-83
2022/07/08 09:20:43;;;;;;;6.97;3.00;;;18.10;99.90;;;;;;4995716;28;20472;-81
2022/07/08 09:23:16;;;;;;;8.63;2.93;;;18.10;99.90;;;;;;4997690;28;20437;-82
2022/07/08 09:25:47;;;;;;;8.10;3.23;;;18.10;99.90;;;;;;4995209;28;20555;-82
2022/07/08 09:28:16;;;;;;;7.33;3.10;;;18.10;99.90;;;;;;4997718;28;20423;-82
2022/07/08 09:30:46;;;;;;;8.40;3.00;;;18.10;99.90;;;;;;4996349;28;20508;-82
2022/07/08 09:33:14;;;;;;;7.00;3.00;;;18.10;99.90;;;;;;4994809;28;20444;-81
2022/07/08 09:35:44;;;;;;;3.93;2.67;;;18.10;99.90;;;;;;4994993;28;20500;-83
2022/07/08 09:38:12;;;;;;;5.10;3.17;;;18.10;99.90;;;;;;4997089;28;20436;-84
2022/07/08 09:40:41;;;;;;;8.50;4.40;;;18.10;99.90;;;;;;4994826;28;20477;-80
2022/07/08 09:43:13;;;;;;;7.53;3.20;;;18.10;99.90;;;;;;4997935;28;20468;-81
2022/07/08 09:45:42;;;;;;;7.97;3.57;;;18.10;99.90;;;;;;4997679;28;20426;-83
2022/07/08 09:48:12;;;;;;;8.60;2.93;;;18.10;99.90;;;;;;4998629;28;20468;-82
2022/07/08 09:50:42;;;;;;;5.20;3.30;;;18.10;99.90;;;;;;4996887;28;20455;-82
2022/07/08 09:53:31;;;;;;;6.63;3.10;;;18.10;99.90;;;;;;4998754;28;20962;-83
2022/07/08 09:56:02;;;;;;;8.27;3.63;;;18.10;99.90;;;;;;4997741;28;20884;-82
2022/07/08 09:58:34;;;;;;;5.00;3.20;;;18.00;99.90;;;;;;4996418;28;20452;-81
2022/07/08 10:01:04;;;;;;;4.60;3.00;;;18.10;99.90;;;;;;4996738;28;20469;-82
2022/07/08 10:03:35;;;;;;;4.23;3.30;;;18.10;99.90;;;;;;4999281;28;20452;-83
2022/07/08 10:06:06;;;;;;;5.67;3.23;;;18.10;99.90;;;;;;5009971;28;20460;-83
2022/07/08 10:08:35;;;;;;;10.43;3.50;;;18.10;99.90;;;;;;5009481;28;20511;-82
2022/07/08 10:11:07;;;;;;;6.70;3.97;;;18.10;99.90;;;;;;5008879;28;20484;-82
2022/07/08 10:13:36;;;;;;;3.73;3.10;;;18.20;99.90;;;;;;5004992;28;20461;-83
2022/07/08 10:16:09;;;;;;;12.47;5.03;;;18.20;99.90;;;;;;5003236;28;20555;-81
2022/07/08 10:18:43;;;;;;;10.13;4.53;;;18.20;99.90;;;;;;4996989;28;20460;-81
2022/07/08 10:21:14;;;;;;;7.37;3.97;;;18.20;99.90;;;;;;4997131;28;20468;-81
2022/07/08 10:23:47;;;;;;;5.43;3.50;;;18.20;99.90;;;;;;4997473;28;20468;-83
2022/07/08 10:26:21;;;;;;;8.00;4.27;;;18.30;99.90;;;;;;4996960;28;20513;-82
2022/07/08 10:29:02;;;;;;;6.20;3.47;;;18.40;99.90;;;;;;4999040;28;20461;-82
2022/07/08 10:31:30;;;;;;;7.77;3.53;;;18.40;99.90;;;;;;4997956;28;20853;-82
2022/07/08 10:34:04;;;;;;;6.33;3.30;;;18.50;99.90;;;;;;5003804;28;20511;-83
2022/07/08 10:36:45;;;;;;;7.97;4.00;;;18.50;99.90;;;;;;4997665;28;20441;-82
2022/07/08 10:39:14;;;;;;;8.53;3.30;;;18.50;99.90;;;;;;4996325;28;20443;-82
2022/07/08 10:41:57;;;;;;;6.53;4.23;;;18.50;99.90;;;;;;4997536;28;20441;-82
2022/07/08 10:44:52;;;;;;;5.60;2.73;;;18.60;99.90;;;;;;4997359;28;20440;-84
2022/07/08 10:47:28;;;;;;;4.37;2.90;;;18.70;99.90;;;;;;4999465;28;20962;-82
2022/07/08 10:50:06;;;;;;;7.87;3.30;;;18.70;99.90;;;;;;5001705;28;20474;-81
2022/07/08 10:52:41;;;;;;;4.53;3.00;;;18.70;99.90;;;;;;4998791;28;20505;-83
2022/07/08 10:55:12;;;;;;;7.73;4.17;;;18.70;99.90;;;;;;5001259;28;20479;-82
2022/07/08 10:57:54;;;;;;;5.40;3.00;;;18.70;99.90;;;;;;4999553;28;20953;-81
2022/07/08 11:00:23;;;;;;;8.10;3.00;;;18.70;99.90;;;;;;5000494;28;20825;-82
2022/07/08 11:02:52;;;;;;;4.33;2.83;;;18.70;99.90;;;;;;4999061;28;20484;-81
2022/07/08 11:05:38;;;;;;;3.50;2.80;;;18.70;99.90;;;;;;4998553;28;20449;-82
2022/07/08 11:08:29;;;;;;;4.77;3.10;;;18.80;99.90;;;;;;4998978;28;20433;-81
2022/07/08 11:10:58;;;;;;;4.30;3.80;;;18.90;99.90;;;;;;4997964;28;20483;-83
2022/07/08 11:13:26;;;;;;;5.60;3.53;;;19.00;99.90;;;;;;5000396;28;20507;-80
2022/07/08 11:15:59;;;;;;;5.47;3.30;;;19.10;99.90;;;;;;4997133;28;20487;-82
2022/07/08 11:18:28;;;;;;;6.83;3.10;;;19.10;99.90;;;;;;4999055;28;20440;-81
2022/07/08 11:21:02;;;;;;;4.80;3.27;;;19.00;99.90;;;;;;5000049;28;20544;-82
2022/07/08 11:23:31;;;;;;;7.00;3.93;;;19.10;99.90;;;;;;4997970;28;20480;-81
2022/07/08 11:26:00;;;;;;;5.87;2.97;;;19.10;99.90;;;;;;4997643;28;20506;-80
2022/07/08 11:28:29;;;;;;;4.77;3.67;;;19.10;99.90;;;;;;4999003;28;20452;-81
2022/07/08 11:30:57;;;;;;;4.70;3.60;;;19.10;99.90;;;;;;4998649;28;20527;-82
2022/07/08 11:33:39;;;;;;;7.20;4.07;;;19.20;99.90;;;;;;4999076;28;20958;-83
2022/07/08 11:36:16;;;;;;;5.50;4.13;;;19.30;99.90;;;;;;4999901;28;20445;-83
2022/07/08 11:38:45;;;;;;;5.97;3.40;;;19.30;99.90;;;;;;4999560;28;20507;-81
2022/07/08 11:41:14;;;;;;;4.70;3.80;;;19.40;99.90;;;;;;4998651;28;20884;-83
2022/07/08 11:43:43;;;;;;;6.40;3.33;;;19.40;99.90;;;;;;5000109;28;20480;-82
2022/07/08 11:46:23;;;;;;;5.67;4.67;;;19.50;99.90;;;;;;5001149;28;20448;-85
2022/07/08 11:48:53;;;;;;;5.50;3.97;;;19.50;99.90;;;;;;4998646;28;20527;-83
2022/07/08 11:51:23;;;;;;;6.27;5.07;;;19.60;99.90;;;;;;4996138;28;20477;-83
2022/07/08 11:53:51;;;;;;;6.20;4.03;;;19.60;99.90;;;;;;4997868;28;20441;-81
2022/07/08 11:56:19;;;;;;;7.20;4.50;;;19.60;99.90;;;;;;4997856;28;20460;-81
2022/07/08 11:58:47;;;;;;;4.27;3.90;;;19.60;99.90;;;;;;4998747;28;20467;-82
2022/07/08 12:01:16;;;;;;;5.40;4.07;;;19.50;99.90;;;;;;4999080;28;20477;-82
2022/07/08 12:03:44;;;;;;;6.53;4.10;;;19.50;99.90;;;;;;4998095;28;20453;-82
2022/07/08 12:06:13;;;;;;;5.77;4.50;;;19.50;99.90;;;;;;4997836;28;20457;-83
2022/07/08 12:08:46;;;;;;;5.60;4.43;;;19.50;99.90;;;;;;5001472;28;20551;-84
2022/07/08 12:11:18;;;;;;;8.13;4.60;;;19.50;99.90;;;;;;5002937;28;20536;-82
2022/07/08 12:13:48;;;;;;;5.40;4.17;;;19.50;99.90;;;;;;4999598;28;20500;-80
2022/07/08 12:16:30;;;;;;;6.17;4.43;;;19.50;99.90;;;;;;5000157;28;20421;-82
2022/07/08 12:18:59;;;;;;;5.13;3.83;;;19.50;99.90;;;;;;4998515;28;20476;-83
2022/07/08 12:21:29;;;;;;;7.57;5.00;;;19.50;99.90;;;;;;4997833;28;20916;-81
2022/07/08 12:24:00;;;;;;;6.10;4.67;;;19.50;99.90;;;;;;4999506;28;20500;-82
2022/07/08 12:26:31;;;;;;;5.80;4.00;;;19.40;99.90;;;;;;4998666;28;20422;-84
2022/07/08 12:28:59;;;;;;;6.00;4.87;;;19.40;99.90;;;;;;4997234;28;20440;-83
2022/07/08 12:31:41;;;;;;;6.40;4.83;;;19.40;99.90;;;;;;4997458;28;20473;-82
2022/07/08 12:34:15;;;;;;;8.47;4.70;;;19.40;99.90;;;;;;4998970;28;20436;-82
2022/07/08 12:36:44;;;;;;;7.70;4.53;;;19.40;99.90;;;;;;4997098;28;20955;-83
2022/07/08 12:39:15;;;;;;;8.13;5.30;;;19.40;99.90;;;;;;4998847;28;20448;-82
2022/07/08 12:41:46;;;;;;;6.47;4.30;;;19.40;99.90;;;;;;4996891;28;20528;-83
2022/07/08 12:44:34;;;;;;;9.93;4.33;;;19.40;99.90;;;;;;4997770;28;20962;-83
2022/07/08 12:47:05;;;;;;;7.03;4.13;;;19.40;99.90;;;;;;4998393;28;20447;-82
2022/07/08 12:49:34;;;;;;;5.00;3.70;;;19.40;99.90;;;;;;4997860;28;20479;-83
2022/07/08 12:52:05;;;;;;;7.43;4.13;;;19.50;99.90;;;;;;4999768;28;20504;-84
2022/07/08 12:54:36;;;;;;;6.70;4.10;;;19.50;99.90;;;;;;4999158;28;20440;-83
2022/07/08 12:57:05;;;;;;;10.63;3.80;;;19.50;99.90;;;;;;4997477;28;20515;-82
2022/07/08 12:59:34;;;;;;;8.23;4.33;;;19.60;99.90;;;;;;4997315;28;20469;-84
2022/07/08 13:02:02;;;;;;;6.30;3.77;;;19.60;99.90;;;;;;4997349;28;20449;-84